Time;durP1;ratioP1;P1;durP2;ratioP2;P2;SDS_P1;SDS_P2;PMS_P1;PMS_P2;Temp;Humidity;BMP_temperature;BMP_pressure;BME280_temperature;BME280_humidity;BME280_pressure;Samples;Min_cycle;Max_cycle;Signal;HPM_P1;HPM_P2
2023/05/14 00:01:27;;;;;;;19.60;7.20;;;15.40;99.90;;;;;;4997183;28;20088;-72
2023/05/14 00:03:52;;;;;;;13.30;6.32;;;15.40;99.90;;;;;;4997178;28;20073;-72
2023/05/14 00:06:18;;;;;;;10.45;6.95;;;15.50;99.90;;;;;;4996933;28;20048;-72
2023/05/14 00:08:44;;;;;;;15.45;7.28;;;15.50;99.90;;;;;;4997061;28;20044;-72
2023/05/14 00:11:10;;;;;;;11.40;6.88;;;15.50;99.90;;;;;;4996837;28;20078;-73
2023/05/14 00:13:35;;;;;;;13.75;6.47;;;15.50;99.90;;;;;;4997148;28;20042;-72
2023/05/14 00:16:01;;;;;;;12.60;6.40;;;15.50;99.90;;;;;;4996420;28;20042;-73
2023/05/14 00:18:27;;;;;;;11.18;6.43;;;15.50;99.90;;;;;;4997189;28;20447;-73
2023/05/14 00:20:53;;;;;;;11.88;6.40;;;15.40;99.90;;;;;;4996737;28;20046;-72
2023/05/14 00:23:22;;;;;;;11.90;6.35;;;15.40;99.90;;;;;;4980101;28;20399;-72
2023/05/14 00:25:48;;;;;;;10.48;6.78;;;15.40;99.90;;;;;;4996713;28;20038;-72
2023/05/14 00:28:14;;;;;;;12.13;6.20;;;15.40;99.90;;;;;;4997024;28;20084;-73
2023/05/14 00:30:40;;;;;;;10.80;6.22;;;15.40;99.90;;;;;;4996624;28;20050;-72
2023/05/14 00:33:06;;;;;;;13.13;6.75;;;15.40;99.90;;;;;;4996823;28;20046;-72
2023/05/14 00:35:34;;;;;;;11.63;5.95;;;15.40;99.90;;;;;;4996671;28;20053;-72
2023/05/14 00:38:00;;;;;;;13.30;6.72;;;15.30;99.90;;;;;;4996535;28;20443;-72
2023/05/14 00:40:26;;;;;;;11.93;6.63;;;14.90;99.90;;;;;;4996550;28;20046;-72
2023/05/14 00:42:53;;;;;;;9.95;5.72;;;15.00;99.90;;;;;;4996618;28;20113;-72
2023/05/14 00:45:19;;;;;;;10.35;6.25;;;15.00;99.90;;;;;;4996597;28;20038;-70
2023/05/14 00:47:46;;;;;;;9.93;6.15;;;15.00;99.90;;;;;;4992041;28;20047;-72
2023/05/14 00:50:14;;;;;;;11.40;5.55;;;15.00;99.90;;;;;;4996696;28;20092;-72
2023/05/14 00:52:40;;;;;;;11.25;6.55;;;15.10;99.90;;;;;;4996563;28;20046;-73
2023/05/14 00:55:07;;;;;;;16.33;6.72;;;15.10;99.90;;;;;;4996631;28;20077;-72
2023/05/14 00:57:34;;;;;;;15.75;7.00;;;15.10;99.90;;;;;;4996731;28;20118;-72
2023/05/14 01:00:01;;;;;;;11.95;6.85;;;15.10;99.90;;;;;;4996512;28;20038;-72
2023/05/14 01:02:27;;;;;;;15.85;7.47;;;15.10;99.90;;;;;;4996650;28;20042;-72
2023/05/14 01:04:53;;;;;;;13.27;6.65;;;15.10;99.90;;;;;;4996642;28;20305;-72
2023/05/14 01:07:24;;;;;;;13.43;6.32;;;15.00;99.90;;;;;;5000150;28;20070;-72
2023/05/14 01:10:02;;;;;;;13.40;6.13;;;15.00;99.90;;;;;;4999982;28;20057;-72
2023/05/14 01:12:58;;;;;;;11.90;6.20;;;15.00;99.90;;;;;;4999997;28;20375;-72
2023/05/14 01:15:28;;;;;;;14.35;7.07;;;15.00;99.90;;;;;;4996625;28;20490;-73
2023/05/14 01:17:58;;;;;;;14.30;6.70;;;14.90;99.90;;;;;;4999140;28;20113;-72
2023/05/14 01:20:25;;;;;;;11.23;6.82;;;14.90;99.90;;;;;;4999586;28;20042;-73
2023/05/14 01:22:51;;;;;;;11.63;5.90;;;15.00;99.90;;;;;;4999614;28;20046;-72
2023/05/14 01:25:17;;;;;;;10.07;6.20;;;15.00;99.90;;;;;;4999464;28;20494;-72
2023/05/14 01:27:52;;;;;;;13.15;6.28;;;15.00;99.90;;;;;;4999674;28;20140;-72
2023/05/14 01:30:31;;;;;;;10.18;5.80;;;14.90;99.90;;;;;;4999732;28;20034;-72
2023/05/14 01:33:01;;;;;;;12.00;6.10;;;14.90;99.90;;;;;;4999770;28;20046;-72
2023/05/14 01:35:28;;;;;;;10.15;5.90;;;14.90;99.90;;;;;;4999438;28;20042;-72
2023/05/14 01:38:00;;;;;;;8.48;5.68;;;15.00;99.90;;;;;;4999292;28;20046;-72
2023/05/14 01:40:26;;;;;;;15.45;5.90;;;14.90;99.90;;;;;;4999395;28;20385;-72
2023/05/14 01:42:53;;;;;;;9.27;5.45;;;14.80;99.90;;;;;;4999285;28;20096;-72
2023/05/14 01:45:20;;;;;;;11.60;5.68;;;14.80;99.90;;;;;;4999443;28;20046;-72
2023/05/14 01:47:47;;;;;;;13.27;5.50;;;14.80;99.90;;;;;;4992489;28;20046;-73
2023/05/14 01:50:13;;;;;;;14.52;5.93;;;14.80;99.90;;;;;;4999190;28;20104;-72
2023/05/14 01:52:38;;;;;;;11.73;5.63;;;14.70;99.90;;;;;;4999074;28;20137;-72
2023/05/14 01:55:05;;;;;;;10.60;5.55;;;14.60;99.90;;;;;;4999186;28;20046;-72
2023/05/14 01:57:30;;;;;;;11.20;5.57;;;14.60;99.90;;;;;;4998987;28;20082;-72
2023/05/14 01:59:56;;;;;;;10.18;5.70;;;14.60;99.90;;;;;;4999192;28;20042;-72
2023/05/14 02:02:22;;;;;;;9.73;5.97;;;14.60;99.90;;;;;;4998795;28;20331;-72
2023/05/14 02:04:48;;;;;;;11.20;6.22;;;14.60;99.90;;;;;;4998951;28;20100;-73
2023/05/14 02:07:14;;;;;;;11.80;7.47;;;14.60;99.90;;;;;;4998839;28;20104;-73
2023/05/14 02:09:40;;;;;;;14.32;7.60;;;14.60;99.90;;;;;;4998967;28;20042;-72
2023/05/14 02:12:07;;;;;;;13.10;6.28;;;14.50;99.90;;;;;;4998913;28;20455;-72
2023/05/14 02:14:33;;;;;;;16.77;6.47;;;14.40;99.90;;;;;;4998740;28;20046;-72
2023/05/14 02:16:58;;;;;;;14.23;6.55;;;14.40;99.90;;;;;;4998339;28;20038;-73
2023/05/14 02:19:24;;;;;;;12.70;6.28;;;14.40;99.90;;;;;;4998771;28;20046;-72
2023/05/14 02:21:50;;;;;;;13.27;6.55;;;14.30;99.90;;;;;;4998889;28;20447;-73
2023/05/14 02:24:15;;;;;;;17.33;7.35;;;14.30;99.90;;;;;;4998584;28;20038;-72
2023/05/14 02:26:41;;;;;;;13.75;7.43;;;14.30;99.90;;;;;;4998595;28;20121;-72
2023/05/14 02:29:07;;;;;;;12.32;6.95;;;14.30;99.90;;;;;;4998748;28;20371;-72
2023/05/14 02:31:33;;;;;;;14.85;6.93;;;14.40;99.90;;;;;;4998388;28;20042;-73
2023/05/14 02:34:00;;;;;;;14.85;8.55;;;14.40;99.90;;;;;;4981068;28;20335;-72
2023/05/14 02:36:26;;;;;;;17.33;8.40;;;14.40;99.90;;;;;;4998371;28;20379;-72
2023/05/14 02:38:52;;;;;;;18.00;8.38;;;14.40;99.90;;;;;;4998210;28;20054;-72
2023/05/14 02:41:18;;;;;;;14.43;7.45;;;14.50;99.90;;;;;;4998170;28;20042;-72
2023/05/14 02:43:43;;;;;;;10.98;7.70;;;14.50;99.90;;;;;;4998428;28;20042;-72
2023/05/14 02:46:09;;;;;;;14.45;6.88;;;14.50;99.90;;;;;;4997335;28;20054;-72
2023/05/14 02:48:35;;;;;;;13.00;6.50;;;14.60;99.90;;;;;;4998282;28;20100;-72
2023/05/14 02:51:01;;;;;;;17.23;7.65;;;14.60;99.90;;;;;;4998177;28;20061;-72
2023/05/14 02:53:27;;;;;;;15.07;7.63;;;14.60;99.90;;;;;;4998015;28;20042;-72
2023/05/14 02:55:52;;;;;;;16.00;6.95;;;14.60;99.90;;;;;;4998012;28;20073;-73
2023/05/14 02:58:18;;;;;;;12.57;7.15;;;14.60;99.90;;;;;;4997936;28;20042;-73
2023/05/14 03:00:44;;;;;;;12.85;7.70;;;14.50;99.90;;;;;;4997933;28;20046;-73
2023/05/14 03:03:09;;;;;;;16.13;7.57;;;14.50;99.90;;;;;;4997700;28;20056;-73
2023/05/14 03:05:35;;;;;;;17.63;7.70;;;14.50;99.90;;;;;;4997828;28;20092;-73
2023/05/14 03:08:01;;;;;;;15.95;8.07;;;14.50;99.90;;;;;;4997749;28;20046;-73
2023/05/14 03:10:26;;;;;;;15.32;7.30;;;14.50;99.90;;;;;;4997656;28;20034;-72
2023/05/14 03:12:52;;;;;;;21.85;8.27;;;14.50;99.90;;;;;;4997681;28;20034;-72
2023/05/14 03:15:18;;;;;;;17.58;7.88;;;14.50;99.90;;;;;;4997566;28;20050;-73
2023/05/14 03:17:43;;;;;;;13.20;6.93;;;14.50;99.90;;;;;;4997371;28;20053;-73
2023/05/14 03:20:10;;;;;;;13.98;6.85;;;14.50;99.90;;;;;;4997643;28;20065;-73
2023/05/14 03:22:35;;;;;;;17.80;7.55;;;14.40;99.90;;;;;;4980735;28;20053;-73
2023/05/14 03:25:01;;;;;;;14.75;7.40;;;14.30;99.90;;;;;;4997341;28;20038;-73
2023/05/14 03:27:27;;;;;;;17.85;7.75;;;14.40;99.90;;;;;;4980239;28;20047;-72
2023/05/14 03:29:52;;;;;;;17.00;8.27;;;14.40;99.90;;;;;;4979763;28;20057;-74
2023/05/14 03:32:18;;;;;;;16.73;7.43;;;14.40;99.90;;;;;;4980114;28;20038;-73
2023/05/14 03:34:44;;;;;;;17.55;8.63;;;14.40;99.90;;;;;;4997574;28;20038;-73
2023/05/14 03:37:10;;;;;;;15.65;7.45;;;14.30;99.90;;;;;;4997496;28;20077;-72
2023/05/14 03:39:35;;;;;;;19.63;8.77;;;14.30;99.90;;;;;;4997335;28;20463;-73
2023/05/14 03:42:04;;;;;;;16.33;7.72;;;14.20;99.90;;;;;;4997391;28;20046;-72
2023/05/14 03:44:29;;;;;;;17.00;7.03;;;14.20;99.90;;;;;;4997156;28;20046;-73
2023/05/14 03:46:55;;;;;;;14.80;7.60;;;14.20;99.90;;;;;;4996341;28;20050;-73
2023/05/14 03:49:21;;;;;;;12.73;6.93;;;14.20;99.90;;;;;;4997205;28;20038;-72
2023/05/14 03:51:46;;;;;;;14.38;7.40;;;14.20;99.90;;;;;;4997098;28;20441;-72
2023/05/14 03:54:12;;;;;;;15.88;7.32;;;14.20;99.90;;;;;;4997106;28;20487;-72
2023/05/14 03:56:38;;;;;;;14.15;7.53;;;14.20;99.90;;;;;;4997110;28;20459;-72
2023/05/14 03:59:03;;;;;;;20.50;9.32;;;14.10;99.90;;;;;;4997140;28;20363;-73
2023/05/14 04:01:29;;;;;;;23.40;9.38;;;14.20;99.90;;;;;;4997310;28;20038;-73
2023/05/14 04:03:54;;;;;;;21.48;10.25;;;14.20;99.90;;;;;;4997086;28;20089;-73
2023/05/14 04:06:20;;;;;;;20.50;9.73;;;14.20;99.90;;;;;;4979878;28;20050;-73
2023/05/14 04:08:46;;;;;;;16.13;9.18;;;14.20;99.90;;;;;;4996846;28;20046;-73
2023/05/14 04:11:11;;;;;;;20.48;9.63;;;14.20;99.90;;;;;;4996873;28;20117;-73
2023/05/14 04:13:37;;;;;;;20.45;8.07;;;14.20;99.90;;;;;;4997107;28;20412;-73
2023/05/14 04:16:03;;;;;;;15.43;8.00;;;14.20;99.90;;;;;;4997045;28;20435;-73
2023/05/14 04:18:29;;;;;;;15.60;9.02;;;14.20;99.90;;;;;;4996570;28;20439;-72
2023/05/14 04:20:55;;;;;;;14.27;8.35;;;14.30;99.90;;;;;;4996881;28;20046;-73
2023/05/14 04:23:20;;;;;;;19.17;8.38;;;14.30;99.90;;;;;;4963791;28;20072;-72
2023/05/14 04:25:46;;;;;;;16.85;9.40;;;14.40;99.90;;;;;;4996651;28;20189;-73
2023/05/14 04:28:12;;;;;;;20.52;9.32;;;14.30;99.90;;;;;;4996820;28;20050;-75
2023/05/14 04:30:37;;;;;;;18.17;9.15;;;14.40;99.90;;;;;;4996726;28;20045;-73
2023/05/14 04:33:03;;;;;;;18.00;10.38;;;14.50;99.90;;;;;;4996893;28;20478;-73
2023/05/14 04:35:29;;;;;;;18.00;9.57;;;14.50;99.90;;;;;;4996884;28;20427;-73
2023/05/14 04:37:54;;;;;;;24.45;10.00;;;14.50;99.90;;;;;;4996717;28;20427;-73
2023/05/14 04:40:21;;;;;;;19.55;10.23;;;14.50;99.90;;;;;;4980578;28;20065;-73
2023/05/14 04:42:47;;;;;;;21.05;9.95;;;14.50;99.90;;;;;;5000362;28;20077;-73
2023/05/14 04:45:13;;;;;;;19.90;9.38;;;14.50;99.90;;;;;;5000300;28;21937;-73
2023/05/14 04:47:39;;;;;;;27.67;11.80;;;14.50;99.90;;;;;;4999648;28;20051;-72
2023/05/14 04:50:05;;;;;;;21.83;9.90;;;14.60;99.90;;;;;;5000484;28;20047;-73
2023/05/14 04:52:32;;;;;;;17.20;9.18;;;14.60;99.90;;;;;;5000433;28;20046;-72
2023/05/14 04:54:58;;;;;;;21.95;9.68;;;14.60;99.90;;;;;;5000236;28;20471;-73
2023/05/14 04:57:23;;;;;;;19.10;8.63;;;14.60;99.90;;;;;;4983101;28;20125;-73
2023/05/14 04:59:49;;;;;;;17.00;8.70;;;14.60;99.90;;;;;;5000098;28;20039;-73
2023/05/14 05:02:15;;;;;;;21.55;9.02;;;14.60;99.90;;;;;;5000360;28;20042;-73
2023/05/14 05:04:40;;;;;;;19.90;10.07;;;14.60;99.90;;;;;;4999921;28;20435;-73
2023/05/14 05:07:06;;;;;;;26.33;11.02;;;14.70;99.90;;;;;;4966818;28;20379;-73
2023/05/14 05:09:31;;;;;;;19.75;8.73;;;14.60;99.90;;;;;;4982670;28;20335;-73
2023/05/14 05:11:57;;;;;;;25.70;10.18;;;14.60;99.90;;;;;;4999992;28;20038;-74
2023/05/14 05:14:23;;;;;;;19.50;8.88;;;14.70;99.90;;;;;;4982629;28;20050;-73
2023/05/14 05:16:50;;;;;;;18.88;8.27;;;14.60;99.90;;;;;;4982137;28;20105;-73
2023/05/14 05:19:16;;;;;;;25.70;9.00;;;14.70;99.90;;;;;;4999968;28;20038;-73
2023/05/14 05:21:41;;;;;;;29.88;10.43;;;14.80;99.90;;;;;;4999932;28;20053;-73
2023/05/14 05:24:07;;;;;;;19.13;9.48;;;14.80;99.90;;;;;;4999971;28;20066;-73
2023/05/14 05:26:35;;;;;;;27.42;10.63;;;14.90;99.90;;;;;;4999498;28;20085;-75
2023/05/14 05:29:02;;;;;;;21.88;8.25;;;15.00;99.90;;;;;;4999687;28;20049;-74
2023/05/14 05:31:28;;;;;;;23.15;10.25;;;14.90;99.90;;;;;;4999793;28;20042;-73
2023/05/14 05:33:54;;;;;;;25.45;9.23;;;15.00;99.90;;;;;;4982513;28;20316;-73
2023/05/14 05:36:20;;;;;;;24.00;8.90;;;15.10;99.90;;;;;;4999609;28;20122;-73
2023/05/14 05:38:45;;;;;;;19.02;8.88;;;15.20;99.90;;;;;;4999591;28;20366;-73
2023/05/14 05:41:11;;;;;;;32.58;11.63;;;15.10;99.90;;;;;;4999497;28;20092;-73
2023/05/14 05:43:37;;;;;;;23.05;9.23;;;15.30;99.90;;;;;;4999431;28;20053;-73
2023/05/14 05:46:02;;;;;;;19.27;9.70;;;15.20;99.90;;;;;;4999121;28;20047;-73
2023/05/14 05:48:28;;;;;;;23.40;10.25;;;15.20;99.90;;;;;;4981676;28;20065;-73
2023/05/14 05:50:54;;;;;;;33.92;11.65;;;15.20;99.90;;;;;;4999174;28;20034;-73
2023/05/14 05:53:19;;;;;;;27.95;10.25;;;15.30;99.90;;;;;;4999453;28;20077;-73
2023/05/14 05:55:45;;;;;;;16.33;7.95;;;15.40;99.90;;;;;;4999352;28;20117;-75
2023/05/14 05:58:13;;;;;;;20.35;7.95;;;15.50;99.90;;;;;;4998911;28;20427;-73
2023/05/14 06:00:39;;;;;;;21.20;8.23;;;15.50;99.90;;;;;;4999153;28;20352;-73
2023/05/14 06:03:04;;;;;;;25.80;8.60;;;15.50;99.90;;;;;;4981673;28;20047;-73
2023/05/14 06:05:30;;;;;;;21.40;8.10;;;15.60;99.90;;;;;;4998805;28;20050;-73
2023/05/14 06:07:56;;;;;;;19.98;8.15;;;15.80;99.90;;;;;;4999003;28;20125;-73
2023/05/14 06:10:21;;;;;;;22.13;9.77;;;15.90;99.90;;;;;;4998763;28;20082;-75
2023/05/14 06:12:47;;;;;;;21.10;8.35;;;15.90;99.90;;;;;;4965449;28;20125;-73
2023/05/14 06:15:13;;;;;;;27.60;9.60;;;15.90;99.90;;;;;;4981510;28;20038;-73
2023/05/14 06:17:38;;;;;;;18.55;8.10;;;16.10;99.90;;;;;;4998274;28;20135;-73
2023/05/14 06:20:06;;;;;;;22.52;7.93;;;16.00;99.90;;;;;;4998530;28;20121;-73
2023/05/14 06:22:32;;;;;;;22.98;8.48;;;16.20;99.90;;;;;;4998707;28;20049;-73
2023/05/14 06:24:58;;;;;;;20.90;8.48;;;16.20;99.90;;;;;;4981450;28;20069;-73
2023/05/14 06:27:24;;;;;;;26.88;8.88;;;16.20;99.90;;;;;;4998363;28;20038;-73
2023/05/14 06:29:49;;;;;;;26.08;8.88;;;16.00;99.90;;;;;;4998634;28;20046;-73
2023/05/14 06:32:16;;;;;;;23.00;9.07;;;16.00;99.90;;;;;;4998442;28;20038;-73
2023/05/14 06:34:42;;;;;;;22.55;8.55;;;16.00;99.90;;;;;;4998503;28;20050;-73
2023/05/14 06:37:08;;;;;;;24.15;8.65;;;16.10;99.90;;;;;;4998267;28;20050;-73
2023/05/14 06:39:35;;;;;;;23.70;8.35;;;15.70;99.90;;;;;;4998305;28;20046;-73
2023/05/14 06:42:01;;;;;;;18.10;7.60;;;16.00;99.90;;;;;;4998320;28;20363;-73
2023/05/14 06:44:27;;;;;;;22.73;7.35;;;16.20;99.90;;;;;;4998053;28;20345;-73
2023/05/14 06:46:52;;;;;;;16.73;7.20;;;16.30;99.90;;;;;;4997595;28;20068;-73
2023/05/14 06:49:18;;;;;;;24.08;7.85;;;16.50;99.90;;;;;;4998135;28;20042;-73
2023/05/14 06:51:44;;;;;;;19.55;8.23;;;16.70;99.90;;;;;;4998111;28;20117;-73
2023/05/14 06:54:10;;;;;;;19.10;7.53;;;16.90;99.90;;;;;;4997995;28;20313;-73
2023/05/14 06:56:36;;;;;;;15.35;6.25;;;17.00;99.90;;;;;;4981261;28;20049;-73
2023/05/14 06:59:02;;;;;;;18.05;7.28;;;17.00;99.90;;;;;;4997826;28;20085;-73
2023/05/14 07:01:27;;;;;;;22.25;7.28;;;17.20;99.90;;;;;;4997864;28;20129;-73
2023/05/14 07:03:53;;;;;;;15.60;5.85;;;17.30;99.90;;;;;;4997273;28;20038;-73
2023/05/14 07:06:19;;;;;;;15.50;6.22;;;17.50;99.90;;;;;;4997925;28;20339;-73
2023/05/14 07:08:44;;;;;;;18.90;6.20;;;17.60;99.90;;;;;;4997993;28;20439;-73
2023/05/14 07:11:12;;;;;;;13.52;5.93;;;17.80;99.90;;;;;;4997673;28;20057;-73
2023/05/14 07:13:38;;;;;;;14.50;6.07;;;17.90;99.90;;;;;;4997648;28;20038;-73
2023/05/14 07:16:05;;;;;;;15.00;6.28;;;17.90;99.90;;;;;;4997590;28;20046;-73
2023/05/14 07:18:31;;;;;;;22.83;7.60;;;18.00;99.90;;;;;;4997301;28;20050;-73
2023/05/14 07:20:56;;;;;;;16.13;7.18;;;18.00;99.90;;;;;;4997539;28;20344;-73
2023/05/14 07:23:22;;;;;;;12.57;5.63;;;17.90;99.90;;;;;;4997575;28;20049;-73
2023/05/14 07:25:48;;;;;;;25.02;7.82;;;17.90;99.90;;;;;;4980125;28;20431;-73
2023/05/14 07:28:13;;;;;;;12.32;5.72;;;18.00;99.90;;;;;;4997557;28;20049;-72
2023/05/14 07:30:39;;;;;;;14.35;5.55;;;17.70;99.90;;;;;;4997675;28;20045;-73
2023/05/14 07:33:05;;;;;;;19.63;6.35;;;17.90;99.90;;;;;;4997259;28;20427;-73
2023/05/14 07:35:30;;;;;;;18.23;5.22;;;17.90;99.90;;;;;;4997599;28;20081;-73
2023/05/14 07:37:56;;;;;;;18.27;6.07;;;18.10;99.90;;;;;;4997244;28;20073;-73
2023/05/14 07:40:23;;;;;;;15.63;5.65;;;18.20;99.90;;;;;;4997412;28;20343;-73
2023/05/14 07:42:49;;;;;;;13.77;6.07;;;18.20;99.90;;;;;;4997543;28;20383;-72
2023/05/14 07:45:15;;;;;;;10.25;5.40;;;18.20;99.90;;;;;;4997187;28;20309;-73
2023/05/14 07:47:41;;;;;;;17.20;6.25;;;18.30;99.90;;;;;;4996653;28;20061;-73
2023/05/14 07:50:07;;;;;;;16.23;5.70;;;18.30;99.90;;;;;;4997312;28;20042;-73
2023/05/14 07:52:33;;;;;;;18.35;5.97;;;18.30;99.90;;;;;;4997308;28;20039;-74
2023/05/14 07:55:00;;;;;;;13.75;5.63;;;18.40;99.90;;;;;;4997080;28;20043;-73
2023/05/14 07:57:26;;;;;;;18.98;6.68;;;18.20;99.90;;;;;;4980003;28;20113;-73
2023/05/14 07:59:51;;;;;;;13.35;6.13;;;18.20;99.90;;;;;;4997163;28;20077;-73
2023/05/14 08:02:17;;;;;;;15.93;6.80;;;18.20;99.90;;;;;;4997200;28;20038;-73
2023/05/14 08:04:43;;;;;;;13.00;5.45;;;18.40;99.90;;;;;;4997042;28;20037;-73
2023/05/14 08:07:09;;;;;;;14.32;6.28;;;18.40;99.90;;;;;;4996779;28;20039;-75
2023/05/14 08:09:35;;;;;;;12.55;5.35;;;18.30;99.90;;;;;;4992300;28;20031;-73
2023/05/14 08:12:01;;;;;;;13.95;7.15;;;18.50;99.90;;;;;;4994215;28;20074;-73
2023/05/14 08:14:27;;;;;;;16.58;7.40;;;18.70;99.90;;;;;;4998285;28;20420;-74
2023/05/14 08:16:53;;;;;;;16.35;7.05;;;18.60;99.90;;;;;;5000627;28;20050;-73
2023/05/14 08:19:19;;;;;;;13.52;6.72;;;18.50;99.90;;;;;;5000988;28;20081;-73
2023/05/14 08:21:45;;;;;;;13.93;6.78;;;18.40;99.90;;;;;;5000714;28;20038;-73
2023/05/14 08:24:11;;;;;;;19.17;7.35;;;18.40;99.90;;;;;;5000657;28;20046;-73
2023/05/14 08:26:37;;;;;;;17.75;7.20;;;18.40;99.90;;;;;;5000592;28;20046;-73
2023/05/14 08:29:03;;;;;;;13.52;7.05;;;18.40;99.90;;;;;;5000682;28;20046;-73
2023/05/14 08:31:29;;;;;;;16.83;7.55;;;18.40;99.90;;;;;;5000851;28;20038;-73
2023/05/14 08:33:55;;;;;;;17.33;7.22;;;18.60;99.90;;;;;;5000927;28;20038;-73
2023/05/14 08:36:21;;;;;;;19.92;7.05;;;18.90;99.90;;;;;;5000850;28;20042;-74
2023/05/14 08:38:47;;;;;;;12.88;6.45;;;18.90;99.90;;;;;;5000347;28;20050;-73
2023/05/14 08:41:14;;;;;;;14.45;6.70;;;19.00;99.90;;;;;;5000332;28;20495;-74
2023/05/14 08:43:53;;;;;;;17.05;7.45;;;19.00;99.90;;;;;;5000701;28;20078;-73
2023/05/14 08:46:23;;;;;;;15.05;6.93;;;19.10;99.90;;;;;;5000175;28;20062;-74
2023/05/14 08:48:57;;;;;;;13.23;7.18;;;19.20;99.90;;;;;;5000279;28;20047;-70
2023/05/14 08:51:23;;;;;;;16.13;7.28;;;19.20;99.90;;;;;;5000498;28;20038;-70
2023/05/14 08:53:50;;;;;;;15.27;7.60;;;19.30;99.90;;;;;;4983276;28;20038;-71
2023/05/14 08:56:17;;;;;;;14.07;6.57;;;19.50;99.90;;;;;;5000213;28;20460;-69
2023/05/14 08:58:43;;;;;;;15.10;6.97;;;19.50;99.90;;;;;;5002655;28;20046;-74
2023/05/14 09:01:08;;;;;;;13.68;6.40;;;19.60;99.90;;;;;;4984024;28;20047;-70
2023/05/14 09:03:35;;;;;;;12.55;7.10;;;19.80;99.90;;;;;;5000056;28;20038;-71
2023/05/14 09:06:03;;;;;;;16.60;6.78;;;20.00;99.90;;;;;;5000238;28;20038;-70
2023/05/14 09:08:28;;;;;;;17.40;7.00;;;19.80;99.90;;;;;;5000069;28;20103;-70
2023/05/14 09:10:54;;;;;;;12.30;6.45;;;19.80;99.90;;;;;;5000216;28;20121;-70
2023/05/14 09:13:20;;;;;;;16.92;7.47;;;20.10;99.90;;;;;;4999891;28;20117;-69
2023/05/14 09:15:47;;;;;;;10.65;5.85;;;20.10;99.90;;;;;;4999873;28;20371;-70
2023/05/14 09:18:13;;;;;;;14.57;6.45;;;20.20;99.90;;;;;;4999365;28;20089;-69
2023/05/14 09:20:39;;;;;;;12.50;6.88;;;20.20;99.90;;;;;;4999964;28;20082;-70
2023/05/14 09:23:05;;;;;;;10.93;6.10;;;20.20;99.90;;;;;;4999907;28;20039;-71
2023/05/14 09:25:31;;;;;;;10.82;5.97;;;20.20;99.90;;;;;;4999301;28;20057;-71
2023/05/14 09:27:57;;;;;;;10.77;6.35;;;20.40;99.90;;;;;;4999346;28;20050;-71
2023/05/14 09:30:25;;;;;;;13.63;6.68;;;20.20;99.90;;;;;;4999611;28;20034;-71
2023/05/14 09:32:53;;;;;;;17.50;8.57;;;20.40;99.90;;;;;;4999609;28;20622;-71
2023/05/14 09:35:21;;;;;;;14.27;7.30;;;20.50;99.90;;;;;;4999336;28;20045;-82
2023/05/14 09:37:49;;;;;;;11.20;6.70;;;20.70;99.90;;;;;;4949991;28;20454;-70
2023/05/14 09:40:17;;;;;;;11.57;6.30;;;20.60;99.90;;;;;;4982700;28;20050;-70
2023/05/14 09:42:42;;;;;;;12.88;6.68;;;20.70;99.90;;;;;;4999463;28;20382;-70
2023/05/14 09:45:09;;;;;;;11.98;6.00;;;20.90;99.90;;;;;;4999526;28;20038;-70
2023/05/14 09:47:36;;;;;;;13.48;6.80;;;21.10;99.90;;;;;;4998638;28;20164;-70
2023/05/14 09:50:02;;;;;;;14.63;7.03;;;21.00;99.90;;;;;;4982021;28;20045;-70
2023/05/14 09:52:28;;;;;;;11.68;5.97;;;21.20;99.90;;;;;;4998864;28;20037;-70
2023/05/14 09:54:54;;;;;;;13.13;5.80;;;21.30;99.90;;;;;;4999286;28;20340;-70
2023/05/14 09:57:20;;;;;;;12.60;5.95;;;21.30;99.90;;;;;;4977170;28;20038;-70
2023/05/14 09:59:45;;;;;;;12.80;5.32;;;21.30;99.90;;;;;;4998803;28;20462;-70
2023/05/14 10:02:39;;;;;;;14.90;5.93;;;21.40;99.90;;;;;;4991364;28;20042;-70
2023/05/14 10:05:06;;;;;;;9.20;5.45;;;21.60;99.90;;;;;;4979369;28;20090;-71
2023/05/14 10:07:43;;;;;;;10.48;6.65;;;21.70;99.90;;;;;;4979571;28;20104;-70
2023/05/14 10:10:14;;;;;;;14.43;5.82;;;21.70;99.90;;;;;;4979377;28;20313;-73
2023/05/14 10:12:40;;;;;;;11.82;5.80;;;21.50;99.90;;;;;;4981325;28;20039;-73
2023/05/14 10:15:16;;;;;;;13.30;5.25;;;21.40;99.90;;;;;;4989490;28;20360;-72
2023/05/14 10:17:48;;;;;;;11.98;5.90;;;21.10;99.90;;;;;;4994822;28;20455;-84
2023/05/14 10:20:15;;;;;;;14.73;5.70;;;21.20;99.90;;;;;;4962385;28;20084;-83
2023/05/14 10:22:41;;;;;;;17.90;6.82;;;21.20;99.90;;;;;;4960694;28;20047;-78
2023/05/14 10:25:07;;;;;;;14.98;7.47;;;21.20;99.90;;;;;;4979117;28;20173;-78
2023/05/14 10:27:33;;;;;;;13.85;7.40;;;21.40;99.90;;;;;;4978955;28;20059;-78
2023/05/14 10:29:59;;;;;;;14.63;8.98;;;21.50;99.90;;;;;;4961906;28;20043;-78
2023/05/14 10:32:26;;;;;;;15.18;7.93;;;21.60;99.90;;;;;;4979259;28;20036;-82
2023/05/14 10:34:52;;;;;;;15.38;8.77;;;21.60;99.90;;;;;;4946224;28;20047;-71
2023/05/14 10:37:20;;;;;;;10.48;7.40;;;21.60;99.90;;;;;;4978465;28;20117;-69
2023/05/14 10:39:52;;;;;;;13.75;7.22;;;22.00;99.90;;;;;;4978326;28;20432;-69
2023/05/14 10:42:23;;;;;;;16.58;7.88;;;22.20;99.90;;;;;;4979157;28;20042;-69
2023/05/14 10:44:57;;;;;;;15.00;8.10;;;22.30;99.90;;;;;;4978830;28;20389;-69
2023/05/14 10:47:27;;;;;;;14.60;7.47;;;22.30;99.90;;;;;;4978220;28;20054;-70
2023/05/14 10:49:55;;;;;;;11.95;7.97;;;22.30;99.90;;;;;;4978872;28;20059;-70
2023/05/14 10:52:21;;;;;;;11.25;7.47;;;22.50;99.90;;;;;;4978568;28;20444;-69
2023/05/14 10:55:01;;;;;;;11.65;8.55;;;22.70;99.90;;;;;;4978928;28;20042;-69
2023/05/14 10:57:29;;;;;;;13.82;8.30;;;22.80;99.90;;;;;;4978588;28;20042;-70
2023/05/14 10:59:57;;;;;;;10.25;7.43;;;22.90;99.90;;;;;;4978784;28;20045;-68
2023/05/14 11:02:24;;;;;;;12.15;7.93;;;22.80;99.90;;;;;;4978317;28;20126;-71
2023/05/14 11:05:03;;;;;;;10.57;6.90;;;23.20;99.90;;;;;;4978594;28;20306;-69
2023/05/14 11:07:34;;;;;;;10.77;7.95;;;23.70;99.90;;;;;;4978491;28;20053;-70
2023/05/14 11:10:08;;;;;;;11.88;7.38;;;24.10;99.90;;;;;;4978523;28;20046;-70
2023/05/14 11:12:39;;;;;;;11.13;6.32;;;23.90;99.90;;;;;;4978375;28;20327;-70
2023/05/14 11:15:10;;;;;;;10.20;6.60;;;23.90;99.90;;;;;;4961003;28;20053;-71
2023/05/14 11:17:37;;;;;;;10.73;6.80;;;24.00;99.90;;;;;;4978094;28;20043;-70
2023/05/14 11:20:05;;;;;;;12.38;6.82;;;23.40;99.90;;;;;;4978058;28;20475;-70
2023/05/14 11:22:31;;;;;;;7.30;5.28;;;23.70;99.90;;;;;;4978268;28;20055;-70
2023/05/14 11:24:56;;;;;;;6.80;5.30;;;24.10;99.90;;;;;;4978066;28;20039;-70
2023/05/14 11:27:22;;;;;;;7.60;4.93;;;24.50;99.90;;;;;;4977980;28;20133;-76
2023/05/14 11:29:49;;;;;;;8.38;4.50;;;24.50;99.90;;;;;;4979636;28;20046;-71
2023/05/14 11:32:15;;;;;;;8.85;4.25;;;24.80;99.90;;;;;;4977994;28;20077;-71
2023/05/14 11:34:45;;;;;;;6.60;4.30;;;25.10;99.90;;;;;;4978174;28;20121;-71
2023/05/14 11:37:13;;;;;;;6.70;3.60;;;25.10;99.90;;;;;;4977880;28;20169;-72
2023/05/14 11:39:44;;;;;;;7.63;2.88;;;24.90;99.90;;;;;;4977769;28;20340;-80
2023/05/14 11:42:12;;;;;;;4.47;2.22;;;24.80;99.90;;;;;;4960948;28;20078;-73
2023/05/14 11:44:38;;;;;;;7.50;2.80;;;24.30;99.90;;;;;;4977944;28;20043;-71
2023/05/14 11:47:05;;;;;;;4.07;2.20;;;24.00;99.90;;;;;;4977315;28;20059;-72
2023/05/14 11:49:31;;;;;;;7.30;2.85;;;24.00;99.90;;;;;;4977433;28;20087;-72
2023/05/14 11:52:09;;;;;;;6.72;2.85;;;23.90;99.90;;;;;;4977979;28;20463;-72
2023/05/14 11:54:34;;;;;;;6.68;2.83;;;23.70;99.90;;;;;;4977641;28;20328;-73
2023/05/14 11:57:07;;;;;;;7.53;2.72;;;23.70;99.90;;;;;;4977775;28;20042;-73
2023/05/14 11:59:33;;;;;;;6.28;2.97;;;23.60;99.90;;;;;;4978166;28;20038;-72
2023/05/14 12:01:58;;;;;;;7.85;2.60;;;23.60;99.90;;;;;;4978709;28;20040;-71
2023/05/14 12:04:24;;;;;;;9.07;2.78;;;23.80;99.90;;;;;;4977929;28;20089;-71
2023/05/14 12:06:51;;;;;;;7.85;2.83;;;24.00;99.90;;;;;;4977123;28;20038;-71
2023/05/14 12:09:21;;;;;;;4.55;2.50;;;24.40;99.90;;;;;;4977392;28;20105;-71
2023/05/14 12:11:51;;;;;;;4.60;2.80;;;24.50;99.90;;;;;;4977741;28;20081;-70
2023/05/14 12:14:22;;;;;;;6.95;2.67;;;24.60;99.90;;;;;;4977503;28;20039;-71
2023/05/14 12:16:49;;;;;;;8.32;3.08;;;24.60;99.90;;;;;;4977233;28;20078;-70
2023/05/14 12:19:17;;;;;;;3.15;2.30;;;24.40;99.90;;;;;;4977585;28;20097;-70
2023/05/14 12:21:45;;;;;;;6.18;2.95;;;24.30;99.90;;;;;;4977606;28;20047;-70
2023/05/14 12:24:13;;;;;;;5.03;2.80;;;24.30;99.90;;;;;;4977553;28;20077;-71
2023/05/14 12:26:42;;;;;;;7.40;3.28;;;24.40;99.90;;;;;;4977293;28;20078;-70
2023/05/14 12:29:12;;;;;;;4.25;2.78;;;24.10;99.90;;;;;;4977386;28;20054;-70
2023/05/14 12:31:48;;;;;;;10.48;3.75;;;24.20;99.90;;;;;;4977172;28;20444;-71
2023/05/14 12:34:15;;;;;;;10.27;3.17;;;24.30;99.90;;;;;;4977268;28;20039;-71
2023/05/14 12:36:41;;;;;;;6.50;2.78;;;24.50;99.90;;;;;;4977445;28;20039;-74